sensor_id;sensor_type;location;lat;lon;timestamp;temperature;humidity
17172;DHT22;8701;50.150;8.756;2024-01-15T00:03:15;1.00;99.90
17172;DHT22;8701;50.150;8.756;2024-01-15T00:07:17;0.90;99.90
17172;DHT22;8701;50.150;8.756;2024-01-15T00:11:19;1.20;99.90
17172;DHT22;8701;50.150;8.756;2024-01-15T00:15:22;1.20;99.90
17172;DHT22;8701;50.150;8.756;2024-01-15T00:19:26;1.30;99.90
17172;DHT22;8701;50.150;8.756;2024-01-15T00:23:28;1.10;99.90
17172;DHT22;8701;50.150;8.756;2024-01-15T00:27:30;1.10;99.90
17172;DHT22;8701;50.150;8.756;2024-01-15T00:31:32;1.00;99.90
17172;DHT22;8701;50.150;8.756;2024-01-15T00:35:36;1.00;99.90
17172;DHT22;8701;50.150;8.756;2024-01-15T00:39:38;1.10;99.90
17172;DHT22;8701;50.150;8.756;2024-01-15T00:43:41;1.10;99.90
17172;DHT22;8701;50.150;8.756;2024-01-15T00:47:43;1.10;99.90
17172;DHT22;8701;50.150;8.756;2024-01-15T00:51:47;1.10;99.90
17172;DHT22;8701;50.150;8.756;2024-01-15T00:55:49;0.90;99.90
17172;DHT22;8701;50.150;8.756;2024-01-15T00:59:51;0.90;99.90
17172;DHT22;8701;50.150;8.756;2024-01-15T01:03:54;0.90;99.90
17172;DHT22;8701;50.150;8.756;2024-01-15T01:07:58;1.10;99.90
17172;DHT22;8701;50.150;8.756;2024-01-15T01:12:00;1.00;99.90
17172;DHT22;8701;50.150;8.756;2024-01-15T01:16:03;1.10;99.90
17172;DHT22;8701;50.150;8.756;2024-01-15T01:20:06;1.10;99.90
17172;DHT22;8701;50.150;8.756;2024-01-15T01:24:11;1.10;99.90
17172;DHT22;8701;50.150;8.756;2024-01-15T01:28:13;1.10;99.90
17172;DHT22;8701;50.150;8.756;2024-01-15T01:32:16;0.90;99.90
17172;DHT22;8701;50.150;8.756;2024-01-15T01:36:18;0.90;99.90
17172;DHT22;8701;50.150;8.756;2024-01-15T01:40:21;1.00;99.90
17172;DHT22;8701;50.150;8.756;2024-01-15T01:44:23;1.00;99.90
17172;DHT22;8701;50.150;8.756;2024-01-15T01:48:26;1.10;99.90
17172;DHT22;8701;50.150;8.756;2024-01-15T01:52:28;1.20;99.90
17172;DHT22;8701;50.150;8.756;2024-01-15T01:56:32;1.10;99.90
17172;DHT22;8701;50.150;8.756;2024-01-15T02:00:35;1.30;99.90
17172;DHT22;8701;50.150;8.756;2024-01-15T02:04:38;1.10;99.90
17172;DHT22;8701;50.150;8.756;2024-01-15T02:08:43;1.10;99.90
17172;DHT22;8701;50.150;8.756;2024-01-15T02:12:47;1.30;99.90
17172;DHT22;8701;50.150;8.756;2024-01-15T02:16:49;1.30;99.90
17172;DHT22;8701;50.150;8.756;2024-01-15T02:20:51;1.40;99.90
17172;DHT22;8701;50.150;8.756;2024-01-15T02:24:55;1.40;99.90
17172;DHT22;8701;50.150;8.756;2024-01-15T02:28:57;1.50;99.90
17172;DHT22;8701;50.150;8.756;2024-01-15T02:33:00;1.40;99.90
17172;DHT22;8701;50.150;8.756;2024-01-15T02:37:02;1.20;99.90
17172;DHT22;8701;50.150;8.756;2024-01-15T02:41:06;1.10;99.90
17172;DHT22;8701;50.150;8.756;2024-01-15T02:45:08;1.10;99.90
17172;DHT22;8701;50.150;8.756;2024-01-15T02:49:11;1.30;99.90
17172;DHT22;8701;50.150;8.756;2024-01-15T02:53:13;1.30;99.90
17172;DHT22;8701;50.150;8.756;2024-01-15T02:57:16;1.40;99.90
17172;DHT22;8701;50.150;8.756;2024-01-15T03:01:19;1.30;99.90
17172;DHT22;8701;50.150;8.756;2024-01-15T03:05:21;1.30;99.90
17172;DHT22;8701;50.150;8.756;2024-01-15T03:09:23;1.40;99.90
17172;DHT22;8701;50.150;8.756;2024-01-15T03:13:27;1.20;99.90
17172;DHT22;8701;50.150;8.756;2024-01-15T03:17:29;1.20;99.90
17172;DHT22;8701;50.150;8.756;2024-01-15T03:21:32;1.30;99.90
17172;DHT22;8701;50.150;8.756;2024-01-15T03:25:35;1.40;99.90
17172;DHT22;8701;50.150;8.756;2024-01-15T03:29:39;1.40;99.90
17172;DHT22;8701;50.150;8.756;2024-01-15T03:33:41;1.30;99.90
17172;DHT22;8701;50.150;8.756;2024-01-15T03:37:44;1.40;99.90
17172;DHT22;8701;50.150;8.756;2024-01-15T03:41:46;1.30;99.90
17172;DHT22;8701;50.150;8.756;2024-01-15T03:45:50;1.20;99.90
17172;DHT22;8701;50.150;8.756;2024-01-15T03:49:52;1.40;99.90
17172;DHT22;8701;50.150;8.756;2024-01-15T03:53:54;1.50;99.90
17172;DHT22;8701;50.150;8.756;2024-01-15T03:57:57;1.50;99.90
17172;DHT22;8701;50.150;8.756;2024-01-15T04:02:00;1.30;99.90
17172;DHT22;8701;50.150;8.756;2024-01-15T04:06:03;1.30;99.90
17172;DHT22;8701;50.150;8.756;2024-01-15T04:10:06;1.40;99.90
17172;DHT22;8701;50.150;8.756;2024-01-15T04:14:08;1.40;99.90
17172;DHT22;8701;50.150;8.756;2024-01-15T04:18:12;1.40;99.90
17172;DHT22;8701;50.150;8.756;2024-01-15T04:22:15;1.50;99.90
17172;DHT22;8701;50.150;8.756;2024-01-15T04:26:17;1.20;99.90
17172;DHT22;8701;50.150;8.756;2024-01-15T04:30:19;1.30;99.90
17172;DHT22;8701;50.150;8.756;2024-01-15T04:34:23;1.60;99.90
17172;DHT22;8701;50.150;8.756;2024-01-15T04:38:25;1.60;99.90
17172;DHT22;8701;50.150;8.756;2024-01-15T04:42:28;1.60;99.90
17172;DHT22;8701;50.150;8.756;2024-01-15T04:46:30;1.40;99.90
17172;DHT22;8701;50.150;8.756;2024-01-15T04:50:33;1.50;99.90
17172;DHT22;8701;50.150;8.756;2024-01-15T04:54:36;1.50;99.90
17172;DHT22;8701;50.150;8.756;2024-01-15T04:58:38;1.60;99.90
17172;DHT22;8701;50.150;8.756;2024-01-15T05:02:40;1.50;99.90
17172;DHT22;8701;50.150;8.756;2024-01-15T05:06:44;1.50;99.90
17172;DHT22;8701;50.150;8.756;2024-01-15T05:10:46;1.40;99.90
17172;DHT22;8701;50.150;8.756;2024-01-15T05:14:48;1.30;99.90
17172;DHT22;8701;50.150;8.756;2024-01-15T05:18:51;1.50;99.90
17172;DHT22;8701;50.150;8.756;2024-01-15T05:22:55;1.40;99.90
17172;DHT22;8701;50.150;8.756;2024-01-15T05:26:57;1.20;99.90
17172;DHT22;8701;50.150;8.756;2024-01-15T05:30:59;1.30;99.90
17172;DHT22;8701;50.150;8.756;2024-01-15T05:35:02;1.10;99.90
17172;DHT22;8701;50.150;8.756;2024-01-15T05:39:06;1.10;99.90
17172;DHT22;8701;50.150;8.756;2024-01-15T05:43:08;1.20;99.90
17172;DHT22;8701;50.150;8.756;2024-01-15T05:47:10;1.20;99.90
17172;DHT22;8701;50.150;8.756;2024-01-15T05:51:13;1.40;99.90
17172;DHT22;8701;50.150;8.756;2024-01-15T05:55:16;1.30;99.90
17172;DHT22;8701;50.150;8.756;2024-01-15T05:59:19;1.40;99.90
17172;DHT22;8701;50.150;8.756;2024-01-15T06:03:22;1.40;99.90
17172;DHT22;8701;50.150;8.756;2024-01-15T06:07:24;1.40;99.90
17172;DHT22;8701;50.150;8.756;2024-01-15T06:11:30;1.60;99.90
17172;DHT22;8701;50.150;8.756;2024-01-15T06:15:33;1.80;99.90
17172;DHT22;8701;50.150;8.756;2024-01-15T06:19:35;1.70;99.90
17172;DHT22;8701;50.150;8.756;2024-01-15T06:23:37;1.50;99.90
17172;DHT22;8701;50.150;8.756;2024-01-15T06:27:41;1.50;99.90
17172;DHT22;8701;50.150;8.756;2024-01-15T06:31:43;1.50;99.90
17172;DHT22;8701;50.150;8.756;2024-01-15T06:35:45;1.50;99.90
17172;DHT22;8701;50.150;8.756;2024-01-15T06:39:48;1.40;99.90
17172;DHT22;8701;50.150;8.756;2024-01-15T06:43:54;1.30;99.90
17172;DHT22;8701;50.150;8.756;2024-01-15T06:47:56;1.30;99.90
17172;DHT22;8701;50.150;8.756;2024-01-15T06:51:58;1.20;99.90
17172;DHT22;8701;50.150;8.756;2024-01-15T06:56:01;1.40;99.90
17172;DHT22;8701;50.150;8.756;2024-01-15T07:00:06;1.40;99.90
17172;DHT22;8701;50.150;8.756;2024-01-15T07:04:09;1.40;99.90
17172;DHT22;8701;50.150;8.756;2024-01-15T07:08:12;1.40;99.90
17172;DHT22;8701;50.150;8.756;2024-01-15T07:12:14;1.40;99.90
17172;DHT22;8701;50.150;8.756;2024-01-15T07:16:18;1.20;99.90
17172;DHT22;8701;50.150;8.756;2024-01-15T07:20:20;1.20;99.90
17172;DHT22;8701;50.150;8.756;2024-01-15T07:24:23;1.30;99.90
17172;DHT22;8701;50.150;8.756;2024-01-15T07:28:25;1.20;99.90
17172;DHT22;8701;50.150;8.756;2024-01-15T07:32:29;1.20;99.90
17172;DHT22;8701;50.150;8.756;2024-01-15T07:36:32;1.40;99.90
17172;DHT22;8701;50.150;8.756;2024-01-15T07:40:34;1.40;99.90
17172;DHT22;8701;50.150;8.756;2024-01-15T07:44:37;1.30;99.90
17172;DHT22;8701;50.150;8.756;2024-01-15T07:48:41;1.40;99.90
17172;DHT22;8701;50.150;8.756;2024-01-15T07:52:44;1.60;99.90
17172;DHT22;8701;50.150;8.756;2024-01-15T07:56:56;1.50;99.90
17172;DHT22;8701;50.150;8.756;2024-01-15T08:00:59;1.50;99.90
17172;DHT22;8701;50.150;8.756;2024-01-15T08:05:03;1.50;99.90
17172;DHT22;8701;50.150;8.756;2024-01-15T08:09:05;1.50;99.90
17172;DHT22;8701;50.150;8.756;2024-01-15T08:13:10;1.50;99.90
17172;DHT22;8701;50.150;8.756;2024-01-15T08:17:12;1.70;99.90
17172;DHT22;8701;50.150;8.756;2024-01-15T08:21:16;1.60;99.90
17172;DHT22;8701;50.150;8.756;2024-01-15T08:25:18;1.60;99.90
17172;DHT22;8701;50.150;8.756;2024-01-15T08:29:21;1.60;99.90
17172;DHT22;8701;50.150;8.756;2024-01-15T08:33:25;1.60;99.90
17172;DHT22;8701;50.150;8.756;2024-01-15T08:37:29;1.80;99.90
17172;DHT22;8701;50.150;8.756;2024-01-15T08:41:31;1.90;99.90
17172;DHT22;8701;50.150;8.756;2024-01-15T08:45:34;1.90;99.90
17172;DHT22;8701;50.150;8.756;2024-01-15T08:49:36;1.80;99.90
17172;DHT22;8701;50.150;8.756;2024-01-15T08:53:41;1.90;99.90
17172;DHT22;8701;50.150;8.756;2024-01-15T08:57:44;2.00;99.90
17172;DHT22;8701;50.150;8.756;2024-01-15T09:01:47;1.90;99.90
17172;DHT22;8701;50.150;8.756;2024-01-15T09:05:49;1.80;99.90
17172;DHT22;8701;50.150;8.756;2024-01-15T09:09:53;1.90;99.90
17172;DHT22;8701;50.150;8.756;2024-01-15T09:13:56;2.00;99.90
17172;DHT22;8701;50.150;8.756;2024-01-15T09:17:58;2.10;99.90
17172;DHT22;8701;50.150;8.756;2024-01-15T09:22:00;2.20;99.90
17172;DHT22;8701;50.150;8.756;2024-01-15T09:26:04;2.30;99.90
17172;DHT22;8701;50.150;8.756;2024-01-15T09:30:07;2.20;99.90
17172;DHT22;8701;50.150;8.756;2024-01-15T09:34:10;2.30;99.90
17172;DHT22;8701;50.150;8.756;2024-01-15T09:38:13;2.80;99.90
17172;DHT22;8701;50.150;8.756;2024-01-15T09:42:16;3.10;99.90
17172;DHT22;8701;50.150;8.756;2024-01-15T09:46:20;3.50;99.90
17172;DHT22;8701;50.150;8.756;2024-01-15T09:50:22;3.90;99.90
17172;DHT22;8701;50.150;8.756;2024-01-15T09:54:25;4.20;99.90
17172;DHT22;8701;50.150;8.756;2024-01-15T09:58:29;4.40;99.90
17172;DHT22;8701;50.150;8.756;2024-01-15T10:02:31;4.60;99.90
17172;DHT22;8701;50.150;8.756;2024-01-15T10:06:34;4.60;99.90
17172;DHT22;8701;50.150;8.756;2024-01-15T10:10:37;4.50;99.90
17172;DHT22;8701;50.150;8.756;2024-01-15T10:14:41;4.40;99.90
17172;DHT22;8701;50.150;8.756;2024-01-15T10:18:44;4.40;99.90
17172;DHT22;8701;50.150;8.756;2024-01-15T10:22:47;4.40;99.90
17172;DHT22;8701;50.150;8.756;2024-01-15T10:26:49;4.40;99.90
17172;DHT22;8701;50.150;8.756;2024-01-15T10:30:55;4.20;99.90
17172;DHT22;8701;50.150;8.756;2024-01-15T10:34:58;4.20;99.90
17172;DHT22;8701;50.150;8.756;2024-01-15T10:39:00;4.00;99.90
17172;DHT22;8701;50.150;8.756;2024-01-15T10:43:04;4.00;99.90
17172;DHT22;8701;50.150;8.756;2024-01-15T10:47:08;4.10;99.90
17172;DHT22;8701;50.150;8.756;2024-01-15T10:51:10;4.50;99.90
17172;DHT22;8701;50.150;8.756;2024-01-15T10:55:12;4.90;99.90
17172;DHT22;8701;50.150;8.756;2024-01-15T10:59:15;4.70;99.90
17172;DHT22;8701;50.150;8.756;2024-01-15T11:03:19;5.00;99.90
17172;DHT22;8701;50.150;8.756;2024-01-15T11:07:22;5.30;99.90
17172;DHT22;8701;50.150;8.756;2024-01-15T11:11:25;5.50;99.90
17172;DHT22;8701;50.150;8.756;2024-01-15T11:15:28;5.80;99.90
17172;DHT22;8701;50.150;8.756;2024-01-15T11:19:37;6.20;99.90
17172;DHT22;8701;50.150;8.756;2024-01-15T11:23:44;6.50;99.90
17172;DHT22;8701;50.150;8.756;2024-01-15T11:27:49;6.70;99.90
17172;DHT22;8701;50.150;8.756;2024-01-15T11:32:00;6.80;99.90
17172;DHT22;8701;50.150;8.756;2024-01-15T11:36:05;6.60;99.90
17172;DHT22;8701;50.150;8.756;2024-01-15T11:40:09;6.40;99.90
17172;DHT22;8701;50.150;8.756;2024-01-15T11:44:13;6.00;99.90
17172;DHT22;8701;50.150;8.756;2024-01-15T11:48:15;5.70;99.90
17172;DHT22;8701;50.150;8.756;2024-01-15T11:52:20;5.60;99.90
17172;DHT22;8701;50.150;8.756;2024-01-15T11:56:23;5.30;99.90
17172;DHT22;8701;50.150;8.756;2024-01-15T12:00:26;5.10;99.90
17172;DHT22;8701;50.150;8.756;2024-01-15T12:04:29;5.10;99.90
17172;DHT22;8701;50.150;8.756;2024-01-15T12:08:32;5.10;99.90
17172;DHT22;8701;50.150;8.756;2024-01-15T12:12:46;5.00;99.90
17172;DHT22;8701;50.150;8.756;2024-01-15T12:16:49;4.80;99.90
17172;DHT22;8701;50.150;8.756;2024-01-15T12:20:54;4.80;99.90
17172;DHT22;8701;50.150;8.756;2024-01-15T12:24:58;4.80;99.90
17172;DHT22;8701;50.150;8.756;2024-01-15T12:29:01;4.70;99.90
17172;DHT22;8701;50.150;8.756;2024-01-15T12:33:05;4.30;99.90
17172;DHT22;8701;50.150;8.756;2024-01-15T12:37:07;4.30;99.90
17172;DHT22;8701;50.150;8.756;2024-01-15T12:41:11;4.30;99.90
17172;DHT22;8701;50.150;8.756;2024-01-15T12:45:13;4.30;99.90
17172;DHT22;8701;50.150;8.756;2024-01-15T12:49:17;4.40;99.90
17172;DHT22;8701;50.150;8.756;2024-01-15T12:53:19;4.50;99.90
17172;DHT22;8701;50.150;8.756;2024-01-15T12:57:23;4.50;99.90
17172;DHT22;8701;50.150;8.756;2024-01-15T13:01:25;4.60;99.90
17172;DHT22;8701;50.150;8.756;2024-01-15T13:05:28;4.80;99.90
17172;DHT22;8701;50.150;8.756;2024-01-15T13:09:31;4.70;99.90
17172;DHT22;8701;50.150;8.756;2024-01-15T13:13:35;4.80;99.90
17172;DHT22;8701;50.150;8.756;2024-01-15T13:17:37;4.80;99.90
17172;DHT22;8701;50.150;8.756;2024-01-15T13:21:40;5.10;99.90
17172;DHT22;8701;50.150;8.756;2024-01-15T13:25:43;5.60;99.90
17172;DHT22;8701;50.150;8.756;2024-01-15T13:29:46;5.80;99.90
17172;DHT22;8701;50.150;8.756;2024-01-15T13:33:49;6.00;99.90
17172;DHT22;8701;50.150;8.756;2024-01-15T13:37:51;5.80;99.90
17172;DHT22;8701;50.150;8.756;2024-01-15T13:41:54;5.40;99.90
17172;DHT22;8701;50.150;8.756;2024-01-15T13:45:59;5.10;99.90
17172;DHT22;8701;50.150;8.756;2024-01-15T13:50:01;5.00;99.90
17172;DHT22;8701;50.150;8.756;2024-01-15T13:54:03;4.80;99.90
17172;DHT22;8701;50.150;8.756;2024-01-15T13:58:06;4.70;99.90
17172;DHT22;8701;50.150;8.756;2024-01-15T14:02:09;4.90;99.90
17172;DHT22;8701;50.150;8.756;2024-01-15T14:06:12;4.90;99.90
17172;DHT22;8701;50.150;8.756;2024-01-15T14:10:14;5.00;99.90
17172;DHT22;8701;50.150;8.756;2024-01-15T14:14:16;4.70;99.90
17172;DHT22;8701;50.150;8.756;2024-01-15T14:18:20;4.50;99.90
17172;DHT22;8701;50.150;8.756;2024-01-15T14:22:23;4.40;99.90
17172;DHT22;8701;50.150;8.756;2024-01-15T14:26:25;4.40;99.90
17172;DHT22;8701;50.150;8.756;2024-01-15T14:30:27;4.40;99.90
17172;DHT22;8701;50.150;8.756;2024-01-15T14:34:31;4.40;99.90
17172;DHT22;8701;50.150;8.756;2024-01-15T14:38:33;4.40;99.90
17172;DHT22;8701;50.150;8.756;2024-01-15T14:42:35;4.30;99.90
17172;DHT22;8701;50.150;8.756;2024-01-15T14:46:39;4.20;99.90
17172;DHT22;8701;50.150;8.756;2024-01-15T14:50:42;4.20;99.90
17172;DHT22;8701;50.150;8.756;2024-01-15T14:54:45;4.00;99.90
17172;DHT22;8701;50.150;8.756;2024-01-15T14:58:48;4.00;99.90
17172;DHT22;8701;50.150;8.756;2024-01-15T15:02:51;3.90;99.90
17172;DHT22;8701;50.150;8.756;2024-01-15T15:06:54;3.90;99.90
17172;DHT22;8701;50.150;8.756;2024-01-15T15:10:57;3.90;99.90
17172;DHT22;8701;50.150;8.756;2024-01-15T15:15:00;3.80;99.90
17172;DHT22;8701;50.150;8.756;2024-01-15T15:19:02;3.70;99.90
17172;DHT22;8701;50.150;8.756;2024-01-15T15:23:06;3.80;99.90
17172;DHT22;8701;50.150;8.756;2024-01-15T15:27:12;3.80;99.90
17172;DHT22;8701;50.150;8.756;2024-01-15T15:31:14;3.80;99.90
17172;DHT22;8701;50.150;8.756;2024-01-15T15:35:16;3.70;99.90
17172;DHT22;8701;50.150;8.756;2024-01-15T15:39:20;3.70;99.90
17172;DHT22;8701;50.150;8.756;2024-01-15T15:43:22;3.60;99.90
17172;DHT22;8701;50.150;8.756;2024-01-15T15:47:24;3.50;99.90
17172;DHT22;8701;50.150;8.756;2024-01-15T15:51:27;3.40;99.90
17172;DHT22;8701;50.150;8.756;2024-01-15T15:55:31;3.40;99.90
17172;DHT22;8701;50.150;8.756;2024-01-15T15:59:37;3.30;99.90
17172;DHT22;8701;50.150;8.756;2024-01-15T16:03:39;3.30;99.90
17172;DHT22;8701;50.150;8.756;2024-01-15T16:07:41;3.30;99.90
17172;DHT22;8701;50.150;8.756;2024-01-15T16:11:45;3.20;99.90
17172;DHT22;8701;50.150;8.756;2024-01-15T16:15:47;3.10;99.90
17172;DHT22;8701;50.150;8.756;2024-01-15T16:19:50;3.10;99.90
17172;DHT22;8701;50.150;8.756;2024-01-15T16:23:52;3.00;99.90
17172;DHT22;8701;50.150;8.756;2024-01-15T16:27:56;3.00;99.90
17172;DHT22;8701;50.150;8.756;2024-01-15T16:31:58;3.00;99.90
17172;DHT22;8701;50.150;8.756;2024-01-15T16:36:00;3.00;99.90
17172;DHT22;8701;50.150;8.756;2024-01-15T16:40:03;2.90;99.90
17172;DHT22;8701;50.150;8.756;2024-01-15T16:44:08;2.70;99.90
17172;DHT22;8701;50.150;8.756;2024-01-15T16:48:10;2.70;99.90
17172;DHT22;8701;50.150;8.756;2024-01-15T16:52:13;2.60;99.90
17172;DHT22;8701;50.150;8.756;2024-01-15T16:56:15;2.70;99.90
17172;DHT22;8701;50.150;8.756;2024-01-15T17:00:20;2.70;99.90
17172;DHT22;8701;50.150;8.756;2024-01-15T17:04:22;2.70;99.90
17172;DHT22;8701;50.150;8.756;2024-01-15T17:08:25;2.60;99.90
17172;DHT22;8701;50.150;8.756;2024-01-15T17:12:27;2.60;99.90
17172;DHT22;8701;50.150;8.756;2024-01-15T17:16:30;2.60;99.90
17172;DHT22;8701;50.150;8.756;2024-01-15T17:20:33;2.60;99.90
17172;DHT22;8701;50.150;8.756;2024-01-15T17:24:35;2.70;99.90
17172;DHT22;8701;50.150;8.756;2024-01-15T17:28:37;2.70;99.90
17172;DHT22;8701;50.150;8.756;2024-01-15T17:32:41;2.80;99.90
17172;DHT22;8701;50.150;8.756;2024-01-15T17:36:43;2.80;99.90
17172;DHT22;8701;50.150;8.756;2024-01-15T17:40:46;2.70;99.90
17172;DHT22;8701;50.150;8.756;2024-01-15T17:44:51;2.60;99.90
17172;DHT22;8701;50.150;8.756;2024-01-15T17:48:54;2.60;99.90
17172;DHT22;8701;50.150;8.756;2024-01-15T17:53:00;2.60;99.90
17172;DHT22;8701;50.150;8.756;2024-01-15T17:57:03;2.60;99.90
17172;DHT22;8701;50.150;8.756;2024-01-15T18:01:06;2.60;99.90
17172;DHT22;8701;50.150;8.756;2024-01-15T18:05:10;2.60;99.90
17172;DHT22;8701;50.150;8.756;2024-01-15T18:09:12;2.60;99.90
17172;DHT22;8701;50.150;8.756;2024-01-15T18:13:15;2.50;99.90
17172;DHT22;8701;50.150;8.756;2024-01-15T18:17:17;2.50;99.90
17172;DHT22;8701;50.150;8.756;2024-01-15T18:21:21;2.40;99.90
17172;DHT22;8701;50.150;8.756;2024-01-15T18:25:24;2.40;99.90
17172;DHT22;8701;50.150;8.756;2024-01-15T18:29:26;2.30;99.90
17172;DHT22;8701;50.150;8.756;2024-01-15T18:33:28;2.30;99.90
17172;DHT22;8701;50.150;8.756;2024-01-15T18:37:32;2.30;99.90
17172;DHT22;8701;50.150;8.756;2024-01-15T18:41:34;2.30;99.90
17172;DHT22;8701;50.150;8.756;2024-01-15T18:45:37;2.40;99.90
17172;DHT22;8701;50.150;8.756;2024-01-15T18:49:41;2.40;99.90
17172;DHT22;8701;50.150;8.756;2024-01-15T18:53:44;2.30;99.90
17172;DHT22;8701;50.150;8.756;2024-01-15T18:57:47;2.20;99.90
17172;DHT22;8701;50.150;8.756;2024-01-15T19:01:50;2.30;99.90
17172;DHT22;8701;50.150;8.756;2024-01-15T19:05:52;2.20;99.90
17172;DHT22;8701;50.150;8.756;2024-01-15T19:09:56;2.10;99.90
17172;DHT22;8701;50.150;8.756;2024-01-15T19:13:58;2.10;99.90
17172;DHT22;8701;50.150;8.756;2024-01-15T19:18:01;2.10;99.90
17172;DHT22;8701;50.150;8.756;2024-01-15T19:22:03;2.10;99.90
17172;DHT22;8701;50.150;8.756;2024-01-15T19:26:07;2.00;99.90
17172;DHT22;8701;50.150;8.756;2024-01-15T19:30:11;2.10;99.90
17172;DHT22;8701;50.150;8.756;2024-01-15T19:34:15;2.10;99.90
17172;DHT22;8701;50.150;8.756;2024-01-15T19:38:18;2.00;99.90
17172;DHT22;8701;50.150;8.756;2024-01-15T19:42:22;2.00;99.90
17172;DHT22;8701;50.150;8.756;2024-01-15T19:46:24;2.10;99.90
17172;DHT22;8701;50.150;8.756;2024-01-15T19:50:27;2.10;99.90
17172;DHT22;8701;50.150;8.756;2024-01-15T19:54:32;2.20;99.90
17172;DHT22;8701;50.150;8.756;2024-01-15T19:58:35;2.00;99.90
17172;DHT22;8701;50.150;8.756;2024-01-15T20:02:38;2.10;99.90
17172;DHT22;8701;50.150;8.756;2024-01-15T20:06:41;2.20;99.90
17172;DHT22;8701;50.150;8.756;2024-01-15T20:10:47;2.10;99.90
17172;DHT22;8701;50.150;8.756;2024-01-15T20:14:53;2.10;99.90
17172;DHT22;8701;50.150;8.756;2024-01-15T20:18:55;2.20;99.90
17172;DHT22;8701;50.150;8.756;2024-01-15T20:22:58;2.30;99.90
17172;DHT22;8701;50.150;8.756;2024-01-15T20:27:01;2.50;99.90
17172;DHT22;8701;50.150;8.756;2024-01-15T20:31:06;2.70;99.90
17172;DHT22;8701;50.150;8.756;2024-01-15T20:35:10;2.60;99.90
17172;DHT22;8701;50.150;8.756;2024-01-15T20:39:12;2.50;99.90
17172;DHT22;8701;50.150;8.756;2024-01-15T20:43:15;2.60;99.90
17172;DHT22;8701;50.150;8.756;2024-01-15T20:47:19;2.60;99.90
17172;DHT22;8701;50.150;8.756;2024-01-15T20:51:22;2.70;99.90
17172;DHT22;8701;50.150;8.756;2024-01-15T20:55:24;2.70;99.90
17172;DHT22;8701;50.150;8.756;2024-01-15T20:59:27;2.70;99.90
17172;DHT22;8701;50.150;8.756;2024-01-15T21:03:31;2.80;99.90
17172;DHT22;8701;50.150;8.756;2024-01-15T21:07:33;2.80;99.90
17172;DHT22;8701;50.150;8.756;2024-01-15T21:11:35;2.80;99.90
17172;DHT22;8701;50.150;8.756;2024-01-15T21:15:37;2.90;99.90
17172;DHT22;8701;50.150;8.756;2024-01-15T21:19:41;2.90;99.90
17172;DHT22;8701;50.150;8.756;2024-01-15T21:23:43;2.90;99.90
17172;DHT22;8701;50.150;8.756;2024-01-15T21:27:45;2.90;99.90
17172;DHT22;8701;50.150;8.756;2024-01-15T21:31:48;2.90;99.90
17172;DHT22;8701;50.150;8.756;2024-01-15T21:35:51;2.90;99.90
17172;DHT22;8701;50.150;8.756;2024-01-15T21:39:53;2.90;99.90
17172;DHT22;8701;50.150;8.756;2024-01-15T21:43:56;3.00;99.90
17172;DHT22;8701;50.150;8.756;2024-01-15T21:47:59;3.00;99.90
17172;DHT22;8701;50.150;8.756;2024-01-15T21:52:03;2.90;99.90
17172;DHT22;8701;50.150;8.756;2024-01-15T21:56:05;3.00;99.90
17172;DHT22;8701;50.150;8.756;2024-01-15T22:00:08;2.90;99.90
17172;DHT22;8701;50.150;8.756;2024-01-15T22:04:13;3.00;99.90
17172;DHT22;8701;50.150;8.756;2024-01-15T22:08:17;3.00;99.90
17172;DHT22;8701;50.150;8.756;2024-01-15T22:12:19;3.10;99.90
17172;DHT22;8701;50.150;8.756;2024-01-15T22:16:22;3.20;99.90
17172;DHT22;8701;50.150;8.756;2024-01-15T22:20:25;3.20;99.90
17172;DHT22;8701;50.150;8.756;2024-01-15T22:24:29;3.10;99.90
17172;DHT22;8701;50.150;8.756;2024-01-15T22:28:31;3.10;99.90
17172;DHT22;8701;50.150;8.756;2024-01-15T22:32:33;3.10;99.90
17172;DHT22;8701;50.150;8.756;2024-01-15T22:36:35;3.00;99.90
17172;DHT22;8701;50.150;8.756;2024-01-15T22:40:39;2.90;99.90
17172;DHT22;8701;50.150;8.756;2024-01-15T22:44:41;2.90;99.90
17172;DHT22;8701;50.150;8.756;2024-01-15T22:48:43;2.90;99.90
17172;DHT22;8701;50.150;8.756;2024-01-15T22:52:46;2.80;99.90
17172;DHT22;8701;50.150;8.756;2024-01-15T22:56:49;2.80;99.90
17172;DHT22;8701;50.150;8.756;2024-01-15T23:00:52;2.90;99.90
17172;DHT22;8701;50.150;8.756;2024-01-15T23:04:54;2.90;99.90
17172;DHT22;8701;50.150;8.756;2024-01-15T23:08:56;3.00;99.90
17172;DHT22;8701;50.150;8.756;2024-01-15T23:13:00;2.90;99.90
17172;DHT22;8701;50.150;8.756;2024-01-15T23:17:04;2.70;99.90
17172;DHT22;8701;50.150;8.756;2024-01-15T23:21:07;2.60;99.90
17172;DHT22;8701;50.150;8.756;2024-01-15T23:25:09;2.50;99.90
17172;DHT22;8701;50.150;8.756;2024-01-15T23:29:13;2.30;99.90
17172;DHT22;8701;50.150;8.756;2024-01-15T23:33:16;2.10;99.90
17172;DHT22;8701;50.150;8.756;2024-01-15T23:37:18;2.10;99.90
17172;DHT22;8701;50.150;8.756;2024-01-15T23:41:21;2.10;99.90
17172;DHT22;8701;50.150;8.756;2024-01-15T23:45:25;2.10;99.90
17172;DHT22;8701;50.150;8.756;2024-01-15T23:49:27;2.00;99.90
17172;DHT22;8701;50.150;8.756;2024-01-15T23:53:29;2.10;99.90
17172;DHT22;8701;50.150;8.756;2024-01-15T23:57:32;2.00;99.90
